Time;durP1;ratioP1;P1;durP2;ratioP2;P2;SDS_P1;SDS_P2;PMS_P1;PMS_P2;Temp;Humidity;BMP_temperature;BMP_pressure;BME280_temperature;BME280_humidity;BME280_pressure;Samples;Min_cycle;Max_cycle;Signal;HPM_P1;HPM_P2
2021/10/28 00:13:56;;;;;;;2.42;1.70;;;;;;;8.53;100.00;101839.59;6120508;28;20047;-79
2021/10/28 00:16:58;;;;;;;6.78;2.10;;;;;;;8.50;100.00;101839.69;6176350;28;20391;-78
2021/10/28 00:20:01;;;;;;;3.00;1.63;;;;;;;8.47;100.00;101839.75;6176654;28;20062;-79
2021/10/28 00:23:03;;;;;;;5.10;2.33;;;;;;;8.42;100.00;101833.78;6176385;28;20062;-78
2021/10/28 00:26:04;;;;;;;2.78;1.35;;;;;;;8.37;100.00;101831.31;6176517;28;20133;-79
2021/10/28 00:29:08;;;;;;;1.73;1.48;;;;;;;8.32;100.00;101825.28;6176785;28;20046;-79
2021/10/28 00:32:10;;;;;;;3.03;1.70;;;;;;;8.30;100.00;101825.31;6170821;28;20051;-79
2021/10/28 00:35:13;;;;;;;1.90;1.40;;;;;;;8.28;100.00;101831.50;6150725;28;20051;-78
2021/10/28 00:38:14;;;;;;;2.85;1.92;;;;;;;8.24;100.00;101835.09;6151487;29;20050;-79
2021/10/28 00:41:18;;;;;;;2.25;1.45;;;;;;;8.20;100.00;101829.09;6163293;28;20414;-78
2021/10/28 00:44:21;;;;;;;3.65;1.42;;;;;;;8.20;100.00;101828.22;6174988;28;20125;-80
2021/10/28 00:47:22;;;;;;;3.33;1.67;;;;;;;8.14;100.00;101830.09;6175154;28;20051;-79
2021/10/28 00:50:25;;;;;;;1.77;1.30;;;;;;;8.12;100.00;101834.50;6175224;28;20046;-79
2021/10/28 00:53:27;;;;;;;2.47;1.55;;;;;;;8.11;100.00;101826.69;6174894;28;20043;-79
2021/10/28 00:56:30;;;;;;;2.78;1.42;;;;;;;8.09;100.00;101823.28;6175712;28;20403;-80
2021/10/28 00:59:32;;;;;;;1.75;1.40;;;;;;;8.08;100.00;101834.63;6175600;28;20051;-79
2021/10/28 01:02:33;;;;;;;3.03;1.50;;;;;;;8.02;100.00;101838.25;6173354;28;20126;-79
2021/10/28 01:05:36;;;;;;;3.20;1.65;;;;;;;8.01;100.00;101838.31;6174929;28;20051;-78
2021/10/28 01:08:39;;;;;;;4.13;1.63;;;;;;;7.94;100.00;101832.34;6177983;28;20126;-79
2021/10/28 01:11:41;;;;;;;2.40;1.45;;;;;;;7.95;100.00;101838.44;6166632;28;20583;-78
2021/10/28 01:14:44;;;;;;;2.95;1.73;;;;;;;7.91;100.00;101827.22;6155067;28;20059;-79
2021/10/28 01:17:45;;;;;;;2.25;1.80;;;;;;;7.86;100.00;101829.94;6155687;28;20047;-79
2021/10/28 01:20:51;;;;;;;2.97;1.30;;;;;;;7.88;100.00;101832.53;6155533;28;20063;-79
2021/10/28 01:23:53;;;;;;;2.85;1.48;;;;;;;7.83;100.00;101832.63;6155919;28;20051;-79
2021/10/28 01:27:02;;;;;;;2.85;1.50;;;;;;;7.77;100.00;101840.66;6155665;29;20161;-79
2021/10/28 01:30:05;;;;;;;3.15;1.60;;;;;;;7.78;100.00;101834.50;6156009;28;20422;-78
2021/10/28 01:33:06;;;;;;;3.28;1.27;;;;;;;7.77;100.00;101840.66;6165959;28;20589;-79
2021/10/28 01:36:10;;;;;;;1.55;1.20;;;;;;;7.76;100.00;101835.41;6165147;28;20047;-79
2021/10/28 01:39:15;;;;;;;3.17;1.60;;;;;;;7.74;100.00;101834.63;6165985;28;20051;-79
2021/10/28 01:42:17;;;;;;;2.63;1.70;;;;;;;7.73;100.00;101825.91;6180737;28;20047;-79
2021/10/28 01:45:19;;;;;;;2.22;1.40;;;;;;;7.73;100.00;101820.69;6179917;28;20058;-79
2021/10/28 01:48:21;;;;;;;1.35;1.20;;;;;;;7.71;100.00;101819.84;6179343;28;20494;-79
2021/10/28 01:51:24;;;;;;;3.95;1.73;;;;;;;7.69;100.00;101819.03;6179150;28;20421;-79
2021/10/28 01:54:27;;;;;;;1.70;1.17;;;;;;;7.70;100.00;101827.72;6178706;28;20414;-79
2021/10/28 01:57:28;;;;;;;3.70;2.00;;;;;;;7.69;100.00;101819.03;6178896;28;20086;-79
2021/10/28 02:00:30;;;;;;;2.22;1.17;;;;;;;7.64;100.00;101820.91;6179171;28;20058;-84
2021/10/28 02:03:31;;;;;;;3.63;1.63;;;;;;;7.65;100.00;101821.75;6172970;28;20407;-79
2021/10/28 02:06:34;;;;;;;2.00;1.45;;;;;;;7.64;100.00;101807.81;6155063;28;20055;-78
2021/10/28 02:09:36;;;;;;;4.60;1.73;;;;;;;7.60;100.00;101816.63;6156152;28;20055;-80
2021/10/28 02:12:39;;;;;;;2.33;1.38;;;;;;;7.61;100.00;101808.75;6154976;28;20130;-79
2021/10/28 02:15:41;;;;;;;2.25;1.40;;;;;;;7.60;100.00;101800.94;6155182;28;20062;-79
2021/10/28 02:18:42;;;;;;;4.22;1.50;;;;;;;7.57;100.00;101798.38;6156362;28;20185;-79
2021/10/28 02:21:45;;;;;;;1.98;1.25;;;;;;;7.55;100.00;101808.03;6164055;28;20051;-80
2021/10/28 02:24:46;;;;;;;2.05;1.00;;;;;;;7.53;100.00;101802.81;6166773;28;20674;-78
2021/10/28 02:27:48;;;;;;;3.38;1.88;;;;;;;7.54;100.00;101808.91;6163997;28;20047;-79
2021/10/28 02:30:49;;;;;;;2.22;1.23;;;;;;;7.53;100.00;101817.66;6167049;28;20050;-79
2021/10/28 02:33:51;;;;;;;4.45;1.63;;;;;;;7.51;100.00;101819.47;6162851;28;20440;-79
2021/10/28 02:36:54;;;;;;;1.40;1.00;;;;;;;7.47;100.00;101808.22;6165872;28;20055;-79
2021/10/28 02:39:56;;;;;;;1.90;1.38;;;;;;;7.43;100.00;101810.94;6164927;28;20071;-78
2021/10/28 02:42:57;;;;;;;2.17;1.63;;;;;;;7.43;100.00;101803.09;6178519;28;20051;-78
2021/10/28 02:45:58;;;;;;;2.53;1.15;;;;;;;7.43;100.00;101803.09;6178138;28;20498;-79
2021/10/28 02:49:00;;;;;;;2.97;1.42;;;;;;;7.43;100.00;101797.84;6178501;28;20058;-79
2021/10/28 02:52:03;;;;;;;1.75;1.40;;;;;;;7.43;100.00;101793.47;6228044;22;20057;-78
2021/10/28 02:55:05;;;;;;;3.42;1.70;;;;;;;7.39;100.00;101789.22;6232749;28;20050;-77
2021/10/28 02:58:07;;;;;;;1.98;1.25;;;;;;;7.35;100.00;101791.03;6248583;28;20072;-77
2021/10/28 03:01:08;;;;;;;1.92;1.10;;;;;;;7.34;100.00;101794.56;6225219;28;20046;-77
2021/10/28 03:04:09;;;;;;;2.20;1.33;;;;;;;7.35;100.00;101795.41;6224224;28;20056;-77
2021/10/28 03:07:12;;;;;;;1.77;1.23;;;;;;;7.31;100.00;101783.28;6223993;28;20054;-77
2021/10/28 03:10:15;;;;;;;1.95;1.40;;;;;;;7.30;100.00;101785.06;6224007;28;20508;-77
2021/10/28 03:13:19;;;;;;;2.13;1.55;;;;;;;7.30;100.00;101787.66;6224108;28;20435;-77
2021/10/28 03:16:27;;;;;;;4.38;1.30;;;;;;;7.30;100.00;101781.59;6223661;28;20140;-77
2021/10/28 03:19:36;;;;;;;2.35;1.38;;;;;;;7.29;100.00;101780.72;6223505;28;20516;-77
2021/10/28 03:25:57;;;;;;;1.77;1.38;;;;;;;7.22;100.00;101776.56;6223343;28;20050;-77
2021/10/28 03:28:59;;;;;;;3.03;1.58;;;;;;;7.21;100.00;101772.19;6223414;28;20054;-77
2021/10/28 03:32:00;;;;;;;2.85;1.70;;;;;;;7.21;100.00;101779.19;6223779;28;20046;-77
2021/10/28 03:35:03;;;;;;;2.92;1.52;;;;;;;7.17;100.00;101773.16;6223324;28;20046;-77
2021/10/28 03:38:11;;;;;;;5.00;1.65;;;;;;;7.15;100.00;101777.56;6223017;28;20390;-77
2021/10/28 03:41:47;;;;;;;1.83;1.33;;;;;;;7.16;100.00;101771.44;6223404;28;20081;-77
2021/10/28 03:48:53;;;;;;;2.03;1.60;;;;;;;7.08;100.00;101771.59;6222723;28;20057;-77
2021/10/28 03:55:38;;;;;;;2.00;1.08;;;;;;;7.03;100.00;101772.59;6222726;28;20073;-77
2021/10/28 04:08:56;;;;;;;3.47;1.52;;;;;;;6.97;100.00;101770.16;6222587;28;20509;-77
2021/10/28 04:18:46;;;;;;;4.13;2.35;;;;;;;6.95;100.00;101766.69;6222610;28;20058;-77
2021/10/28 04:22:01;;;;;;;3.50;1.40;;;;;;;6.93;100.00;101755.41;6222257;28;20050;-77
2021/10/28 04:31:43;;;;;;;5.50;2.38;;;;;;;6.88;100.00;101765.97;6236271;28;20041;-77
2021/10/28 04:34:44;;;;;;;4.43;1.90;;;;;;;6.88;100.00;101762.50;6246259;28;20588;-77
2021/10/28 04:37:47;;;;;;;9.50;2.25;;;;;;;6.88;100.00;101758.13;6246913;28;20061;-77
2021/10/28 04:40:48;;;;;;;5.70;2.53;;;;;;;6.87;100.00;101764.25;6246656;28;20053;-77
2021/10/28 04:43:51;;;;;;;4.55;2.25;;;;;;;6.88;100.00;101755.53;6250493;28;20045;-77
2021/10/28 04:46:53;;;;;;;5.05;3.00;;;;;;;6.89;100.00;101759.84;6251724;28;20052;-77
2021/10/28 04:49:54;;;;;;;6.88;2.88;;;;;;;6.88;100.00;101762.50;6251509;28;20046;-77
2021/10/28 04:52:55;;;;;;;10.38;3.33;;;;;;;6.90;100.00;101758.09;6251490;28;20045;-77
2021/10/28 04:55:57;;;;;;;7.15;2.63;;;;;;;6.89;100.00;101751.16;6251256;28;20060;-77
2021/10/28 04:59:00;;;;;;;6.30;3.25;;;;;;;6.82;100.00;101756.53;6251061;28;20049;-77
2021/10/28 05:02:01;;;;;;;6.63;2.88;;;;;;;6.80;100.00;101754.81;6250363;28;20045;-77
2021/10/28 05:05:02;;;;;;;9.38;3.65;;;;;;;6.81;100.00;101756.53;6244113;28;20448;-77
2021/10/28 05:08:04;;;;;;;5.00;2.30;;;;;;;6.81;100.00;101756.53;6251022;28;20053;-77
2021/10/28 05:11:06;;;;;;;5.00;2.35;;;;;;;6.77;100.00;101754.91;6251285;28;20053;-77
2021/10/28 05:14:08;;;;;;;5.38;3.03;;;;;;;6.76;100.00;101745.31;6250838;28;20045;-77
2021/10/28 05:17:10;;;;;;;3.90;2.47;;;;;;;6.73;100.00;101748.03;6251311;28;20076;-78
2021/10/28 05:20:11;;;;;;;4.53;2.88;;;;;;;6.71;100.00;101745.44;6250976;28;20065;-78
2021/10/28 05:23:13;;;;;;;8.13;3.72;;;;;;;6.73;100.00;101738.44;6251019;28;20042;-78
2021/10/28 05:26:14;;;;;;;7.60;3.92;;;;;;;6.70;100.00;101745.47;6252218;28;20062;-78
2021/10/28 05:29:17;;;;;;;10.23;4.30;;;;;;;6.72;100.00;101741.06;6243957;28;20093;-78
2021/10/28 05:32:19;;;;;;;4.13;2.75;;;;;;;6.77;100.00;101745.31;6226858;28;20054;-78
2021/10/28 05:35:20;;;;;;;6.65;3.45;;;;;;;6.74;100.00;101739.28;6226553;28;20057;-78
2021/10/28 05:38:22;;;;;;;8.18;4.53;;;;;;;6.74;100.00;101732.31;6226902;28;20140;-78
2021/10/28 05:41:23;;;;;;;6.68;4.07;;;;;;;6.76;100.00;101734.88;6226492;28;20563;-78
2021/10/28 05:44:26;;;;;;;11.55;3.53;;;;;;;6.79;100.00;101724.38;6226614;28;20049;-78
2021/10/28 05:47:27;;;;;;;7.28;3.35;;;;;;;6.83;100.00;101731.25;6226647;28;20204;-78
2021/10/28 05:50:30;;;;;;;7.03;3.22;;;;;;;6.87;100.00;101732.91;6226281;28;20429;-78
2021/10/28 05:53:31;;;;;;;8.02;4.53;;;;;;;6.90;100.00;101724.97;6225438;28;20125;-78
2021/10/28 05:56:33;;;;;;;7.60;3.42;;;;;;;6.93;100.00;101721.44;6227222;28;20140;-78
2021/10/28 05:59:35;;;;;;;9.93;3.53;;;;;;;6.95;100.00;101732.72;6242856;28;20053;-78
2021/10/28 06:02:37;;;;;;;8.70;4.47;;;;;;;6.94;100.00;101726.63;6250401;28;20052;-78
2021/10/28 06:05:39;;;;;;;6.70;3.15;;;;;;;6.96;100.00;101731.84;6250537;28;20060;-78
2021/10/28 06:08:40;;;;;;;5.38;3.47;;;;;;;6.99;100.00;101731.75;6250626;28;20045;-78
2021/10/28 06:11:42;;;;;;;9.50;3.50;;;;;;;7.00;100.00;101729.13;6250505;28;20050;-78
2021/10/28 06:14:44;;;;;;;6.78;3.53;;;;;;;7.05;100.00;101721.19;6250074;28;20045;-78
2021/10/28 06:17:50;;;;;;;9.70;3.70;;;;;;;7.08;100.00;101719.34;6252542;28;20056;-78
2021/10/28 06:20:54;;;;;;;7.07;3.65;;;;;;;7.11;100.00;101719.28;6257137;28;20060;-78
2021/10/28 06:23:55;;;;;;;8.30;3.88;;;;;;;7.18;100.00;101725.22;6261883;28;20052;-78
2021/10/28 06:26:56;;;;;;;10.60;4.32;;;;;;;7.24;100.00;101709.38;6258499;28;20088;-78
2021/10/28 06:29:59;;;;;;;8.38;4.35;;;;;;;7.30;100.00;101709.22;6261707;28;20049;-78
2021/10/28 06:33:04;;;;;;;9.07;3.83;;;;;;;7.35;100.00;101709.13;6260917;28;20069;-78
2021/10/28 06:36:05;;;;;;;10.40;5.18;;;;;;;7.39;100.00;101710.75;6260828;28;20480;-78
2021/10/28 06:39:06;;;;;;;10.82;4.43;;;;;;;7.43;100.00;101714.16;6261483;28;20049;-78
2021/10/28 06:42:11;;;;;;;9.57;4.00;;;;;;;7.46;100.00;101708.88;6259921;28;20045;-78
2021/10/28 06:45:18;;;;;;;6.53;4.10;;;;;;;7.53;100.00;101708.66;6256522;28;20526;-78
2021/10/28 06:48:19;;;;;;;8.88;3.88;;;;;;;7.58;100.00;101711.16;6261998;28;20048;-78
2021/10/28 06:51:21;;;;;;;8.85;4.07;;;;;;;7.65;100.00;101711.88;6259982;28;20050;-78
2021/10/28 06:54:26;;;;;;;9.18;4.65;;;;;;;7.69;100.00;101710.91;6249464;28;20068;-78
2021/10/28 06:57:56;;;;;;;7.53;3.97;;;;;;;7.72;100.00;101711.69;6248329;28;20420;-78
2021/10/28 07:04:17;;;;;;;7.93;4.22;;;;;;;7.83;100.00;101712.25;6248890;28;20042;-78
2021/10/28 07:07:20;;;;;;;9.50;3.92;;;;;;;7.89;100.00;101708.59;6250417;28;20053;-77
2021/10/28 07:10:23;;;;;;;7.05;4.63;;;;;;;7.94;100.00;101708.50;6250182;28;20420;-78
2021/10/28 07:13:27;;;;;;;10.13;4.20;;;;;;;7.97;100.00;101714.50;6249963;28;20056;-78
2021/10/28 07:16:39;;;;;;;7.68;4.05;;;;;;;7.98;100.00;101718.84;6251056;28;20050;-78
2021/10/28 07:23:29;;;;;;;6.35;3.88;;;;;;;8.19;100.00;101716.53;6320455;28;20745;-76
2021/10/28 07:26:49;;;;;;;15.07;4.93;;;;;;;8.24;100.00;101714.66;6320254;28;20059;-76
2021/10/28 07:30:11;;;;;;;7.63;4.32;;;;;;;8.32;100.00;101710.91;6318773;28;20060;-78
2021/10/28 07:33:24;;;;;;;11.18;4.55;;;;;;;8.32;100.00;101710.06;6294715;28;20075;-76
2021/10/28 07:36:42;;;;;;;8.13;4.05;;;;;;;8.37;100.00;101705.59;6294421;28;20044;-78
2021/10/28 07:57:09;;;;;;;5.28;3.42;;;;;;;8.75;100.00;101704.44;6290368;28;20057;-78
2021/10/28 08:00:34;;;;;;;11.27;4.60;;;;;;;8.82;100.00;101681.53;6293851;28;20071;-79
2021/10/28 08:13:54;;;;;;;7.00;3.88;;;;;;;8.97;100.00;101688.91;6293573;28;20061;-79
2021/10/28 08:17:37;;;;;;;7.88;4.03;;;;;;;9.05;100.00;101680.81;6294225;28;20052;-79
2021/10/28 08:21:03;;;;;;;9.38;4.38;;;;;;;9.21;100.00;101673.28;6289271;28;20048;-79
2021/10/28 08:24:14;;;;;;;8.05;4.43;;;;;;;9.21;100.00;101678.53;6283980;28;20045;-77
2021/10/28 08:30:35;;;;;;;9.30;4.95;;;;;;;9.37;100.00;101683.22;6268058;28;20081;-78
2021/10/28 08:33:37;;;;;;;10.75;4.25;;;;;;;9.36;100.00;101676.28;6265608;28;20056;-77
2021/10/28 08:36:41;;;;;;;13.25;5.50;;;;;;;9.46;100.00;101679.44;6262273;28;20045;-78
2021/10/28 08:39:44;;;;;;;9.65;4.90;;;;;;;9.60;100.00;101669.34;6250806;28;20389;-77
2021/10/28 08:42:46;;;;;;;8.27;4.15;;;;;;;9.62;100.00;101667.50;6250018;28;20053;-77
2021/10/28 08:45:50;;;;;;;8.73;4.40;;;;;;;9.69;100.00;101656.81;6272546;28;20056;-78
2021/10/28 08:48:55;;;;;;;7.40;3.88;;;;;;;9.78;100.00;101664.34;6274893;28;20071;-77
2021/10/28 08:52:06;;;;;;;11.32;4.03;;;;;;;9.82;100.00;101656.31;6298011;22;20458;-83
2021/10/28 08:55:18;;;;;;;11.75;4.78;;;;;;;9.90;100.00;101659.53;6269378;28;20056;-82
2021/10/28 09:25:38;;;;;;;9.30;4.43;;;;;;;10.49;100.00;101624.09;6247172;28;20463;-84
2021/10/28 09:28:44;;;;;;;7.38;4.20;;;;;;;10.55;100.00;101626.47;6248999;28;20061;-80
2021/10/28 09:31:54;;;;;;;8.25;3.75;;;;;;;10.66;100.00;101626.03;6249135;28;20042;-80
2021/10/28 09:35:13;;;;;;;8.05;3.80;;;;;;;10.79;100.00;101624.66;6249060;28;20133;-83
2021/10/28 09:45:15;;;;;;;5.97;3.78;;;;;;;10.90;100.00;101617.19;6248446;28;20057;-85
2021/10/28 09:48:34;;;;;;;7.07;3.60;;;;;;;11.00;100.00;101628.19;6249685;28;20049;-81
2021/10/28 09:51:43;;;;;;;;;;;;;;;11.14;100.00;101623.22;6246303;28;20041;-84
2021/10/28 09:54:49;;;;;;;6.50;4.07;;;;;;;11.35;100.00;101615.31;6225380;28;19928;-86
2021/10/28 09:57:55;;;;;;;7.15;3.17;;;;;;;11.46;100.00;101620.16;6224892;28;20269;-86
2021/10/28 10:00:56;;;;;;;6.07;3.10;;;;;;;11.52;100.00;101622.50;6225018;28;20045;-85
2021/10/28 10:04:00;;;;;;;7.22;3.63;;;;;;;11.62;100.00;101629.94;6224331;28;20485;-82
2021/10/28 10:07:04;;;;;;;8.05;4.18;;;;;;;11.62;100.00;101627.28;6225365;28;20096;-85
2021/10/28 10:10:06;;;;;;;8.65;3.95;;;;;;;11.73;100.00;101629.47;6237713;28;20076;-82
2021/10/28 10:13:07;;;;;;;6.82;3.75;;;;;;;11.86;100.00;101624.56;6249071;28;20048;-81
2021/10/28 10:16:10;;;;;;;6.40;3.30;;;;;;;11.89;100.00;101621.75;6249430;28;20049;-81
2021/10/28 10:19:14;;;;;;;9.52;3.90;;;;;;;11.90;100.00;101619.09;6265787;28;20080;-84
2021/10/28 10:22:22;;;;;;;7.18;4.20;;;;;;;11.98;100.00;101625.78;6248898;28;20128;-83
2021/10/28 10:25:37;;;;;;;5.95;3.22;;;;;;;12.06;100.00;101619.22;6248312;28;20053;-81
2021/10/28 10:29:23;;;;;;;6.32;3.67;;;;;;;12.23;100.00;101615.84;6240464;28;20111;-82
2021/10/28 11:04:09;;;;;;;7.55;3.22;;;;;;;13.87;100.00;101568.06;6257285;28;20045;-84
2021/10/28 12:25:50;;;;;;;2.25;1.38;;;;;;;15.76;83.19;101450.25;6251308;28;20042;-81
2021/10/28 12:46:14;;;;;;;1.20;0.70;;;;;;;16.45;77.55;101409.44;6227249;28;20058;-85
2021/10/28 12:49:49;;;;;;;1.15;0.80;;;;;;;16.57;78.38;101410.41;6242340;28;20517;-84
2021/10/28 12:53:09;;;;;;;2.30;1.70;;;;;;;16.63;78.05;101401.19;6241924;28;20136;-84
2021/10/28 13:03:38;;;;;;;1.38;1.00;;;;;;;16.88;70.78;101384.44;6250896;28;20497;-83
2021/10/28 13:50:11;;;;;;;0.93;0.63;;;;;;;16.60;74.59;101327.09;6249129;28;20057;-82
2021/10/28 13:57:13;;;;;;;1.30;0.57;;;;;;;16.30;76.72;101325.56;6249323;28;20408;-82
2021/10/28 14:00:39;;;;;;;4.45;0.90;;;;;;;16.11;76.55;101312.72;6249407;28;20060;-82
2021/10/28 14:20:44;;;;;;;2.58;0.60;;;;;;;15.16;80.79;101299.53;6223193;28;20054;-81
2021/10/28 14:24:07;;;;;;;;;;;;;;;15.03;80.24;101301.25;6237318;28;20405;-81
2021/10/28 14:27:28;;;;;;;1.08;0.70;;;;;;;14.89;81.17;101291.53;6248734;28;20047;-81
2021/10/28 14:37:40;;;;;;;1.13;0.60;;;;;;;14.48;82.86;101294.94;6223974;28;20050;-82
2021/10/28 15:31:10;;;;;;;0.68;0.60;;;;;;;13.21;91.50;101239.75;6246498;28;20061;-76
2021/10/28 15:34:29;;;;;;;1.73;0.90;;;;;;;13.08;93.42;101236.13;6246590;28;20046;-76
2021/10/28 15:37:44;;;;;;;4.03;0.75;;;;;;;13.01;93.72;101239.19;6247498;28;20516;-77
2021/10/28 15:41:07;;;;;;;1.95;0.68;;;;;;;12.94;94.59;101239.53;6250307;28;20176;-77
2021/10/28 15:47:59;;;;;;;0.98;0.68;;;;;;;12.75;97.14;101222.16;6252446;28;20428;-77
2021/10/28 16:24:30;;;;;;;2.70;0.73;;;;;;;11.96;100.00;101187.75;6228214;28;20049;-77
2021/10/28 16:27:33;;;;;;;2.53;1.10;;;;;;;11.91;100.00;101180.94;6229174;28;20050;-77
2021/10/28 16:30:35;;;;;;;1.10;0.82;;;;;;;11.85;100.00;101185.66;6228642;28;20620;-75
2021/10/28 16:33:37;;;;;;;1.55;0.90;;;;;;;11.79;100.00;101171.00;6248616;28;20405;-75
2021/10/28 16:36:38;;;;;;;1.45;1.02;;;;;;;11.76;100.00;101176.41;6254662;28;20045;-77
2021/10/28 16:39:40;;;;;;;1.42;0.80;;;;;;;11.75;100.00;101177.34;6254689;28;20053;-75
2021/10/28 16:42:43;;;;;;;2.70;1.25;;;;;;;11.73;100.00;101170.47;6256239;28;20048;-78
2021/10/28 16:45:46;;;;;;;2.20;1.10;;;;;;;11.70;100.00;101171.47;6249913;28;20412;-75
2021/10/28 16:48:49;;;;;;;1.85;1.20;;;;;;;11.65;100.00;101184.84;6246026;28;20042;-76
2021/10/28 16:51:51;;;;;;;1.48;1.10;;;;;;;11.62;100.00;101177.09;6242542;28;20049;-76
2021/10/28 16:54:52;;;;;;;1.70;1.13;;;;;;;11.56;100.00;101190.59;6249414;28;20050;-76
2021/10/28 16:57:55;;;;;;;1.40;0.90;;;;;;;11.51;100.00;101191.75;6249977;28;20060;-75
2021/10/28 17:00:57;;;;;;;2.28;1.20;;;;;;;11.45;100.00;101187.66;6249922;28;20408;-77
2021/10/28 17:03:58;;;;;;;2.05;1.20;;;;;;;11.36;100.00;101188.97;6249393;28;20051;-76
2021/10/28 17:07:00;;;;;;;1.58;1.00;;;;;;;11.33;100.00;101186.47;6243009;28;20053;-76
2021/10/28 17:10:03;;;;;;;1.98;1.10;;;;;;;11.27;100.00;101192.06;6249798;28;20065;-76
2021/10/28 17:13:06;;;;;;;2.63;1.42;;;;;;;11.21;100.00;101189.69;6249280;28;20053;-76
2021/10/28 17:16:08;;;;;;;3.10;1.50;;;;;;;11.16;100.00;101189.91;6249178;28;20405;-76
2021/10/28 17:19:10;;;;;;;2.72;1.20;;;;;;;11.12;100.00;101183.09;6248703;28;20527;-76
2021/10/28 17:22:11;;;;;;;2.75;1.52;;;;;;;11.08;100.00;101184.22;6249356;28;20068;-76
2021/10/28 17:25:18;;;;;;;1.42;1.13;;;;;;;11.04;100.00;101184.44;6248989;28;20053;-75
2021/10/28 17:28:20;;;;;;;2.13;1.52;;;;;;;10.99;100.00;101183.78;6250688;28;20053;-77
2021/10/28 17:31:22;;;;;;;3.45;1.40;;;;;;;10.94;100.00;101184.00;6254804;28;20583;-78
2021/10/28 17:34:24;;;;;;;1.95;1.45;;;;;;;10.86;100.00;101188.78;6255063;28;20049;-78
2021/10/28 17:37:25;;;;;;;3.58;1.80;;;;;;;10.80;100.00;101184.66;6255555;28;20052;-78
2021/10/28 17:40:27;;;;;;;2.08;1.50;;;;;;;10.76;100.00;101179.59;6254898;28;20072;-78
2021/10/28 17:43:31;;;;;;;1.55;1.45;;;;;;;10.70;100.00;101183.38;6254876;28;20050;-78
2021/10/28 17:46:32;;;;;;;2.88;1.13;;;;;;;10.63;100.00;101172.31;6255359;28;20045;-78
2021/10/28 17:49:33;;;;;;;1.83;1.30;;;;;;;10.61;100.00;101183.81;6255854;28;20165;-78
2021/10/28 17:52:36;;;;;;;2.63;1.35;;;;;;;10.59;100.00;101183.91;6255152;28;20045;-78
2021/10/28 17:55:37;;;;;;;2.03;1.27;;;;;;;10.55;100.00;101178.84;6255530;28;20401;-78
2021/10/28 17:58:40;;;;;;;3.70;1.60;;;;;;;10.55;100.00;101184.09;6255548;28;20060;-78
2021/10/28 18:01:42;;;;;;;1.88;1.50;;;;;;;10.46;100.00;101171.41;6255583;28;20060;-77
2021/10/28 18:04:43;;;;;;;2.65;1.50;;;;;;;10.38;100.00;101171.75;6254397;28;20046;-78
2021/10/28 18:07:45;;;;;;;1.60;1.40;;;;;;;10.33;100.00;101169.31;6253418;28;20431;-78
2021/10/28 18:10:47;;;;;;;3.70;1.88;;;;;;;10.23;100.00;101175.03;6253998;28;20052;-78
2021/10/28 18:13:54;;;;;;;2.75;1.45;;;;;;;10.16;100.00;101164.78;6254185;28;20132;-78
2021/10/28 18:16:56;;;;;;;5.13;1.95;;;;;;;10.12;100.00;101168.47;6254752;28;20056;-78
2021/10/28 18:19:58;;;;;;;3.10;1.40;;;;;;;10.07;100.00;101162.56;6254739;28;20046;-78
2021/10/28 18:22:59;;;;;;;4.13;1.40;;;;;;;10.05;100.00;101161.81;6254723;28;20049;-78
2021/10/28 18:26:01;;;;;;;3.13;1.10;;;;;;;9.99;100.00;101162.09;6253523;28;20055;-77
2021/10/28 18:29:05;;;;;;;2.70;1.63;;;;;;;9.94;100.00;101160.56;6254936;28;20061;-78
2021/10/28 18:32:07;;;;;;;2.78;1.60;;;;;;;9.93;100.00;101161.47;6254584;28;20408;-77
2021/10/28 18:35:11;;;;;;;4.28;1.95;;;;;;;9.87;100.00;101165.25;6233237;28;20493;-78
2021/10/28 18:38:12;;;;;;;1.83;1.60;;;;;;;9.83;100.00;101151.38;6229100;28;20465;-78
2021/10/28 18:41:15;;;;;;;1.95;1.50;;;;;;;9.84;100.00;101154.84;6229201;28;20141;-78
2021/10/28 18:44:18;;;;;;;3.25;1.60;;;;;;;9.80;100.00;101150.66;6229130;28;20452;-78
2021/10/28 18:47:20;;;;;;;3.08;1.92;;;;;;;9.75;100.00;101147.38;6237078;28;20053;-78
2021/10/28 18:50:23;;;;;;;3.03;1.90;;;;;;;9.71;100.00;101151.06;6253549;28;20211;-78
2021/10/28 18:53:24;;;;;;;1.85;1.42;;;;;;;9.62;100.00;101144.44;6252442;28;20049;-77
2021/10/28 18:56:26;;;;;;;1.55;1.35;;;;;;;9.54;100.00;101147.41;6251296;28;20060;-77
2021/10/28 18:59:29;;;;;;;2.75;1.60;;;;;;;9.45;100.00;101145.19;6251164;28;20140;-77
2021/10/28 19:02:33;;;;;;;3.53;1.27;;;;;;;9.41;100.00;101148.84;6250283;28;20417;-78
2021/10/28 19:05:34;;;;;;;2.45;1.55;;;;;;;9.31;100.00;101142.25;6237975;28;20064;-77
2021/10/28 19:08:37;;;;;;;2.20;1.40;;;;;;;9.29;100.00;101141.47;6239156;28;20045;-76
2021/10/28 19:11:38;;;;;;;3.15;1.75;;;;;;;9.19;100.00;101127.03;6236900;28;20049;-78
2021/10/28 19:14:43;;;;;;;4.15;1.92;;;;;;;9.13;100.00;101136.88;6238564;28;20049;-78
2021/10/28 19:17:47;;;;;;;2.03;1.80;;;;;;;9.10;100.00;101134.38;6240931;28;20131;-78
2021/10/28 19:20:48;;;;;;;4.68;2.22;;;;;;;9.05;100.00;101135.47;6237883;28;20508;-77
2021/10/28 19:23:49;;;;;;;2.25;1.40;;;;;;;8.99;100.00;101130.47;6241193;28;20042;-77
2021/10/28 19:26:51;;;;;;;3.15;1.80;;;;;;;8.94;100.00;101122.78;6240146;28;20053;-77
2021/10/28 19:29:58;;;;;;;3.92;2.00;;;;;;;8.92;100.00;101123.78;6239318;28;20049;-77
2021/10/28 19:33:03;;;;;;;4.25;1.65;;;;;;;8.90;100.00;101129.06;6240226;28;20042;-78
2021/10/28 19:36:08;;;;;;;2.38;1.50;;;;;;;8.86;100.00;101119.66;6237130;28;20136;-77
2021/10/28 19:39:30;;;;;;;1.55;1.20;;;;;;;8.85;100.00;101117.91;6237359;28;20053;-77
2021/10/28 19:49:08;;;;;;;2.95;1.63;;;;;;;8.78;100.00;101116.47;6235593;28;20069;-78
2021/10/28 19:52:12;;;;;;;2.47;1.58;;;;;;;8.78;100.00;101125.19;6246466;28;20045;-78
2021/10/28 19:55:14;;;;;;;3.20;1.77;;;;;;;8.79;100.00;101120.78;6247016;28;20045;-78
2021/10/28 19:58:19;;;;;;;2.85;1.75;;;;;;;8.80;100.00;101120.72;6247464;28;20369;-78
2021/10/28 20:01:29;;;;;;;4.47;2.25;;;;;;;8.80;100.00;101122.50;6246619;28;20041;-76
2021/10/28 20:04:47;;;;;;;3.58;2.28;;;;;;;8.83;100.00;101127.63;6246234;28;20094;-76
2021/10/28 20:08:05;;;;;;;3.20;2.00;;;;;;;8.82;100.00;101118.91;6246273;28;20052;-77
2021/10/28 20:14:35;;;;;;;4.18;1.90;;;;;;;8.95;100.00;101121.00;6202335;28;20068;-77
2021/10/28 20:20:57;;;;;;;4.65;2.15;;;;;;;9.15;100.00;101119.28;6243943;28;20049;-76
2021/10/28 20:23:59;;;;;;;6.47;2.92;;;;;;;9.33;100.00;101114.22;6231099;28;20428;-75
2021/10/28 20:27:00;;;;;;;4.40;2.15;;;;;;;9.26;100.00;101126.72;6236190;28;20052;-76
2021/10/28 20:30:03;;;;;;;3.85;2.70;;;;;;;9.30;100.00;101107.31;6242995;28;20060;-76
2021/10/28 20:33:06;;;;;;;4.60;2.33;;;;;;;9.27;100.00;101120.56;6244198;28;20052;-77
2021/10/28 20:37:05;;;;;;;4.15;2.40;;;;;;;9.32;100.00;101128.25;6248340;28;20050;-77
2021/10/28 20:39:33;;;;;;;3.75;2.33;;;;;;;9.32;100.00;101113.34;6249875;28;20042;-77
2021/10/28 20:42:40;;;;;;;3.83;2.53;;;;;;;9.28;100.00;101119.66;6250214;28;20069;-77
2021/10/28 20:45:42;;;;;;;3.40;2.30;;;;;;;9.19;100.00;101117.41;6244200;28;20060;-77
2021/10/28 20:48:45;;;;;;;7.90;3.53;;;;;;;9.15;100.00;101124.53;6249486;28;20049;-77
2021/10/28 20:51:47;;;;;;;3.78;2.53;;;;;;;9.11;100.00;101128.19;6249923;28;20058;-77
2021/10/28 20:54:48;;;;;;;4.82;2.30;;;;;;;9.09;100.00;101121.34;6272570;22;20092;-81
2021/10/28 20:57:51;;;;;;;4.70;2.88;;;;;;;9.06;100.00;101124.06;6319293;28;20052;-81
2021/10/28 21:00:53;;;;;;;6.20;2.80;;;;;;;9.03;100.00;101119.78;6324349;28;20051;-81
2021/10/28 21:03:55;;;;;;;4.57;2.33;;;;;;;8.99;100.00;101118.22;6324268;28;20044;-81
2021/10/28 21:06:57;;;;;;;5.43;2.47;;;;;;;8.93;100.00;101113.22;6324187;28;20055;-81
2021/10/28 21:09:59;;;;;;;4.45;3.20;;;;;;;8.84;100.00;101103.97;6297708;28;20057;-81
2021/10/28 21:13:00;;;;;;;3.92;3.00;;;;;;;8.80;100.00;101109.41;6299442;28;20484;-81
2021/10/28 21:16:02;;;;;;;7.80;4.13;;;;;;;8.78;100.00;101111.22;6299017;28;20048;-81
2021/10/28 21:19:05;;;;;;;6.88;3.22;;;;;;;8.72;100.00;101108.84;6299619;28;20556;-80
2021/10/28 21:22:06;;;;;;;5.00;2.67;;;;;;;8.71;100.00;101109.75;6299344;28;20044;-81
2021/10/28 21:25:10;;;;;;;6.55;3.25;;;;;;;8.68;100.00;101102.03;6298659;28;20048;-80